createdAt,value
2023-06-27T00:01:48.503Z,4.80
2023-06-27T00:06:50.562Z,4.88
2023-06-27T00:11:52.288Z,4.78
2023-06-27T00:16:54.151Z,5.15
2023-06-27T00:21:56.580Z,5.40
2023-06-27T00:26:58.879Z,5.65
2023-06-27T00:32:00.725Z,6.05
2023-06-27T00:37:02.494Z,6.10
2023-06-27T00:42:05.189Z,5.25
2023-06-27T00:47:07.514Z,5.60
2023-06-27T00:52:09.487Z,5.30
2023-06-27T00:57:11.308Z,5.20
2023-06-27T01:02:15.116Z,5.03
2023-06-27T01:07:28.380Z,5.10
2023-06-27T01:12:48.040Z,5.07
2023-06-27T01:17:51.238Z,5.70
2023-06-27T01:23:28.197Z,5.20
2023-06-27T01:28:30.005Z,5.57
2023-06-27T01:33:42.860Z,5.07
2023-06-27T01:39:11.690Z,4.88
2023-06-27T01:44:15.428Z,4.88
2023-06-27T01:49:17.360Z,4.38
2023-06-27T01:54:19.086Z,4.60
2023-06-27T01:59:20.948Z,4.45
2023-06-27T02:04:22.611Z,4.43
2023-06-27T02:09:24.518Z,4.72
2023-06-27T02:14:26.405Z,4.80
2023-06-27T02:19:28.117Z,5.03
2023-06-27T02:24:29.748Z,4.88
2023-06-27T02:29:31.994Z,5.30
2023-06-27T02:34:33.667Z,5.35
2023-06-27T02:39:35.427Z,5.70
2023-06-27T02:44:37.163Z,4.70
2023-06-27T02:49:38.931Z,4.85
2023-06-27T02:54:40.674Z,4.82
2023-06-27T02:59:42.319Z,4.82
2023-06-27T03:04:45.723Z,4.90
2023-06-27T03:09:47.626Z,4.53
2023-06-27T03:14:52.431Z,4.07
2023-06-27T03:19:55.021Z,4.22
2023-06-27T03:24:56.828Z,4.10
2023-06-27T03:29:59.994Z,4.00
2023-06-27T03:35:03.002Z,3.95
2023-06-27T03:40:05.909Z,3.70
2023-06-27T03:45:08.119Z,4.05
2023-06-27T03:50:10.152Z,3.55
2023-06-27T03:55:12.093Z,4.32
2023-06-27T04:00:15.707Z,4.00
2023-06-27T04:05:17.623Z,4.10
2023-06-27T04:10:20.421Z,4.40
2023-06-27T04:15:22.245Z,4.05
2023-06-27T04:20:24.228Z,4.45
2023-06-27T04:25:33.851Z,4.43
2023-06-27T04:30:37.752Z,3.97
2023-06-27T04:35:39.893Z,4.05
2023-06-27T04:40:45.083Z,4.50
2023-06-27T04:45:46.951Z,4.18
2023-06-27T04:50:48.805Z,4.53
2023-06-27T04:55:51.870Z,3.80
2023-06-27T05:00:53.762Z,3.85
2023-06-27T05:05:55.558Z,4.20
2023-06-27T05:10:57.921Z,4.05
2023-06-27T05:15:59.877Z,4.15
2023-06-27T05:21:01.562Z,4.45
2023-06-27T05:26:03.400Z,4.03
2023-06-27T05:31:05.305Z,3.97
2023-06-27T05:36:08.404Z,4.03
2023-06-27T05:41:10.186Z,3.90
2023-06-27T05:46:11.926Z,4.47
2023-06-27T05:51:13.696Z,3.78
2023-06-27T05:56:15.458Z,3.90
2023-06-27T06:01:17.132Z,4.00
2023-06-27T06:06:18.843Z,4.03
2023-06-27T06:11:20.497Z,3.45
2023-06-27T06:16:22.195Z,3.67
2023-06-27T06:21:23.883Z,3.83
2023-06-27T06:26:25.781Z,3.70
2023-06-27T06:31:27.389Z,3.78
2023-06-27T06:36:29.153Z,3.45
2023-06-27T06:41:31.542Z,4.38
2023-06-27T06:46:33.445Z,3.63
2023-06-27T06:51:35.212Z,3.95
2023-06-27T06:56:36.918Z,3.47
2023-06-27T07:01:38.720Z,3.92
2023-06-27T07:06:40.428Z,3.30
2023-06-27T07:11:42.242Z,3.95
2023-06-27T07:16:43.907Z,4.30
2023-06-27T07:21:45.659Z,4.05
2023-06-27T07:26:47.527Z,3.95
2023-06-27T07:31:49.138Z,4.00
2023-06-27T07:36:51.248Z,3.30
2023-06-27T07:41:53.037Z,3.70
2023-06-27T07:46:54.735Z,3.75
2023-06-27T07:51:56.557Z,3.42
2023-06-27T07:56:58.683Z,3.97
2023-06-27T08:02:00.562Z,4.43
2023-06-27T08:07:02.437Z,4.88
2023-06-27T08:12:07.458Z,5.15
2023-06-27T08:17:09.291Z,5.25
2023-06-27T08:22:10.996Z,4.88
2023-06-27T08:27:12.990Z,5.75
2023-06-27T08:32:14.669Z,5.30
2023-06-27T08:37:16.422Z,5.70
2023-06-27T08:42:18.623Z,5.50
2023-06-27T08:47:23.794Z,4.57
2023-06-27T08:52:26.810Z,4.35
2023-06-27T08:57:33.149Z,4.60
2023-06-27T09:02:35.787Z,5.25
2023-06-27T09:07:37.955Z,5.57
2023-06-27T09:12:44.898Z,4.53
2023-06-27T09:17:48.137Z,5.22
2023-06-27T09:22:51.015Z,4.05
2023-06-27T09:27:55.006Z,4.45
2023-06-27T09:32:59.134Z,4.60
2023-06-27T09:43:14.389Z,5.03
2023-06-27T09:48:19.678Z,5.13
2023-06-27T09:53:23.946Z,5.03
2023-06-27T09:58:32.620Z,4.68
2023-06-27T10:03:35.067Z,4.65
2023-06-27T10:08:37.839Z,3.97
2023-06-27T10:13:40.694Z,4.00
2023-06-27T10:18:43.578Z,2.63
2023-06-27T10:23:53.913Z,2.20
2023-06-27T10:28:56.069Z,2.00
2023-06-27T10:33:59.097Z,2.00
2023-06-27T10:39:00.765Z,1.85
2023-06-27T10:44:10.811Z,2.28
2023-06-27T10:49:12.656Z,2.20
2023-06-27T10:54:17.198Z,3.38
2023-06-27T10:59:20.356Z,3.65
2023-06-27T11:04:27.161Z,3.22
2023-06-27T11:09:30.919Z,4.25
2023-06-27T11:14:39.728Z,4.25
2023-06-27T11:19:43.670Z,4.10
2023-06-27T11:24:46.359Z,3.70
2023-06-27T11:29:48.084Z,3.70
2023-06-27T11:34:50.042Z,3.72
2023-06-27T11:39:55.679Z,3.70
2023-06-27T11:44:57.409Z,4.07
2023-06-27T11:50:10.056Z,3.92
2023-06-27T11:55:11.940Z,3.67
2023-06-27T12:00:27.508Z,3.88
2023-06-27T12:05:29.504Z,3.47
2023-06-27T12:10:32.850Z,3.00
2023-06-27T12:15:47.899Z,3.00
2023-06-27T12:20:51.001Z,3.10
2023-06-27T12:25:52.615Z,2.95
2023-06-27T12:30:54.357Z,2.55
2023-06-27T12:35:56.120Z,2.35
2023-06-27T12:40:58.538Z,2.13
2023-06-27T12:46:04.076Z,1.20
2023-06-27T12:51:05.871Z,1.20
2023-06-27T12:56:07.711Z,1.20
2023-06-27T13:01:11.249Z,1.25
2023-06-27T13:06:13.175Z,0.98
2023-06-27T13:11:16.616Z,2.08
2023-06-27T13:16:18.375Z,1.30
2023-06-27T13:21:20.304Z,0.93
2023-06-27T13:26:22.256Z,0.90
2023-06-27T13:31:24.863Z,1.27
2023-06-27T13:36:26.596Z,1.15
2023-06-27T13:41:29.226Z,1.05
2023-06-27T13:46:31.058Z,1.15
2023-06-27T13:51:32.892Z,1.63
2023-06-27T13:56:37.149Z,1.17
2023-06-27T14:01:40.178Z,1.13
2023-06-27T14:06:41.978Z,1.30
2023-06-27T14:11:43.982Z,1.00
2023-06-27T14:16:45.849Z,0.82
2023-06-27T14:21:47.509Z,1.48
2023-06-27T14:26:49.078Z,1.40
2023-06-27T14:31:50.770Z,1.83
2023-06-27T14:36:53.280Z,0.90
2023-06-27T14:41:55.062Z,1.00
2023-06-27T14:46:56.923Z,1.17
2023-06-27T14:51:58.566Z,1.13
2023-06-27T14:57:00.257Z,1.20
2023-06-27T15:02:01.969Z,1.00
2023-06-27T15:07:03.962Z,1.00
2023-06-27T15:12:06.462Z,1.00
2023-06-27T15:17:08.267Z,1.00
2023-06-27T15:22:09.933Z,0.90
2023-06-27T15:27:11.569Z,0.80
2023-06-27T15:32:14.074Z,0.75
2023-06-27T15:37:15.734Z,0.82
2023-06-27T15:42:17.454Z,0.70
2023-06-27T15:47:20.545Z,0.80
2023-06-27T15:52:22.225Z,0.68
2023-06-27T15:57:23.902Z,0.80
2023-06-27T16:02:25.815Z,0.77
2023-06-27T16:07:27.793Z,0.70
2023-06-27T16:12:29.521Z,0.98
2023-06-27T16:17:31.333Z,0.60
2023-06-27T16:22:33.400Z,0.70
2023-06-27T16:27:35.233Z,0.77
2023-06-27T16:32:37.159Z,0.60
2023-06-27T16:37:38.912Z,0.70
2023-06-27T16:42:40.692Z,1.00
2023-06-27T16:47:42.567Z,0.90
2023-06-27T16:52:44.477Z,0.60
2023-06-27T16:57:46.167Z,0.70
2023-06-27T17:02:49.409Z,0.73
2023-06-27T17:07:51.241Z,0.90
2023-06-27T17:12:53.433Z,1.05
2023-06-27T17:17:55.362Z,1.15
2023-06-27T17:22:57.193Z,0.63
2023-06-27T17:28:01.615Z,0.77
2023-06-27T17:33:03.571Z,0.80
2023-06-27T17:38:05.345Z,0.60
2023-06-27T17:43:08.496Z,0.70
2023-06-27T17:48:10.285Z,0.93
2023-06-27T17:53:11.994Z,0.80
2023-06-27T17:58:13.644Z,0.70
2023-06-27T18:03:15.405Z,0.75
2023-06-27T18:08:20.810Z,0.90
2023-06-27T18:13:22.738Z,0.90
2023-06-27T18:18:24.517Z,1.10
2023-06-27T18:23:26.224Z,1.27
2023-06-27T18:28:29.457Z,0.80
2023-06-27T18:33:31.193Z,0.90
2023-06-27T18:38:32.923Z,0.80
2023-06-27T18:43:34.968Z,0.85
2023-06-27T18:48:37.138Z,0.75
2023-06-27T18:53:38.886Z,0.80
2023-06-27T18:58:42.593Z,1.00
2023-06-27T19:03:44.576Z,1.10
2023-06-27T19:08:46.277Z,1.08
2023-06-27T19:13:48.137Z,1.13
2023-06-27T19:18:49.780Z,1.17
2023-06-27T19:23:52.893Z,1.10
2023-06-27T19:28:54.682Z,1.85
2023-06-27T19:33:56.395Z,1.40
2023-06-27T19:38:58.166Z,1.00
2023-06-27T19:43:59.829Z,1.13
2023-06-27T19:49:01.566Z,1.08
2023-06-27T19:54:04.290Z,1.17
2023-06-27T19:59:06.016Z,1.10
2023-06-27T20:04:07.825Z,1.40
2023-06-27T20:09:09.531Z,1.35
2023-06-27T20:14:11.426Z,1.27
2023-06-27T20:19:13.057Z,1.35
2023-06-27T20:24:15.317Z,1.45
2023-06-27T20:29:17.134Z,1.35
2023-06-27T20:34:18.953Z,1.45
2023-06-27T20:39:21.321Z,1.25
2023-06-27T20:44:23.277Z,1.30
2023-06-27T20:49:25.094Z,1.52
2023-06-27T20:54:26.910Z,1.63
2023-06-27T20:59:28.633Z,1.75
2023-06-27T21:04:30.342Z,1.25
2023-06-27T21:09:32.008Z,1.33
2023-06-27T21:14:33.650Z,1.30
2023-06-27T21:19:35.272Z,1.00
2023-06-27T21:24:36.970Z,1.30
2023-06-27T21:29:38.687Z,1.40
2023-06-27T21:34:40.474Z,1.50
2023-06-27T21:39:42.190Z,1.30
2023-06-27T21:44:44.174Z,1.38
2023-06-27T21:49:45.866Z,1.48
2023-06-27T21:54:47.818Z,1.27
2023-06-27T21:59:49.628Z,1.00
2023-06-27T22:04:51.992Z,1.25
2023-06-27T22:09:53.918Z,1.20
2023-06-27T22:14:55.572Z,1.10
2023-06-27T22:19:57.614Z,0.88
2023-06-27T22:24:59.585Z,1.00
2023-06-27T22:30:01.466Z,0.98
2023-06-27T22:35:03.309Z,1.10
2023-06-27T22:40:05.582Z,1.23
2023-06-27T22:45:07.566Z,1.05
2023-06-27T22:50:09.779Z,0.98
2023-06-27T22:55:11.384Z,1.00
2023-06-27T23:00:13.858Z,1.00
2023-06-27T23:05:15.546Z,0.95
2023-06-27T23:10:17.262Z,0.98
2023-06-27T23:15:18.945Z,0.90
2023-06-27T23:20:20.887Z,0.95
2023-06-27T23:25:22.986Z,0.70
2023-06-27T23:30:27.695Z,1.38
2023-06-27T23:35:29.569Z,0.73
2023-06-27T23:40:31.390Z,0.82
2023-06-27T23:45:39.013Z,0.80
2023-06-27T23:50:41.051Z,0.75
2023-06-27T23:55:43.040Z,1.05
